sensor_id;sensor_type;location;lat;lon;timestamp;temperature;humidity
83500;DHT22;73433;50.908;13.746;2023-11-21T00:01:17;7.90;91.00
83500;DHT22;73433;50.908;13.746;2023-11-21T00:03:44;7.80;91.20
83500;DHT22;73433;50.908;13.746;2023-11-21T00:06:11;7.80;91.50
83500;DHT22;73433;50.908;13.746;2023-11-21T00:08:38;7.80;91.70
83500;DHT22;73433;50.908;13.746;2023-11-21T00:11:06;7.80;91.80
83500;DHT22;73433;50.908;13.746;2023-11-21T00:13:33;7.80;91.90
83500;DHT22;73433;50.908;13.746;2023-11-21T00:16:02;7.80;92.10
83500;DHT22;73433;50.908;13.746;2023-11-21T00:18:29;7.80;93.00
83500;DHT22;73433;50.908;13.746;2023-11-21T00:20:56;7.70;92.40
83500;DHT22;73433;50.908;13.746;2023-11-21T00:23:25;7.70;92.50
83500;DHT22;73433;50.908;13.746;2023-11-21T00:25:53;7.70;92.60
83500;DHT22;73433;50.908;13.746;2023-11-21T00:28:20;7.70;92.70
83500;DHT22;73433;50.908;13.746;2023-11-21T00:30:47;7.70;92.90
83500;DHT22;73433;50.908;13.746;2023-11-21T00:33:14;7.70;93.00
83500;DHT22;73433;50.908;13.746;2023-11-21T00:35:41;7.70;93.10
83500;DHT22;73433;50.908;13.746;2023-11-21T00:38:09;7.70;93.90
83500;DHT22;73433;50.908;13.746;2023-11-21T00:40:36;7.70;93.20
83500;DHT22;73433;50.908;13.746;2023-11-21T00:43:04;7.70;93.20
83500;DHT22;73433;50.908;13.746;2023-11-21T00:45:32;7.70;93.20
83500;DHT22;73433;50.908;13.746;2023-11-21T00:48:00;7.70;93.00
83500;DHT22;73433;50.908;13.746;2023-11-21T00:50:27;7.80;93.00
83500;DHT22;73433;50.908;13.746;2023-11-21T00:52:54;7.80;93.00
83500;DHT22;73433;50.908;13.746;2023-11-21T00:55:22;7.70;93.00
83500;DHT22;73433;50.908;13.746;2023-11-21T00:57:49;7.70;92.90
83500;DHT22;73433;50.908;13.746;2023-11-21T01:00:16;7.70;92.90
83500;DHT22;73433;50.908;13.746;2023-11-21T01:02:44;7.70;93.00
83500;DHT22;73433;50.908;13.746;2023-11-21T01:05:12;7.70;93.10
83500;DHT22;73433;50.908;13.746;2023-11-21T01:07:39;7.70;93.10
83500;DHT22;73433;50.908;13.746;2023-11-21T01:10:07;7.70;93.20
83500;DHT22;73433;50.908;13.746;2023-11-21T01:12:35;7.70;93.20
83500;DHT22;73433;50.908;13.746;2023-11-21T01:15:07;7.70;93.30
83500;DHT22;73433;50.908;13.746;2023-11-21T01:17:35;7.70;93.30
83500;DHT22;73433;50.908;13.746;2023-11-21T01:20:02;7.70;93.30
83500;DHT22;73433;50.908;13.746;2023-11-21T01:22:33;7.70;93.30
83500;DHT22;73433;50.908;13.746;2023-11-21T01:25:00;7.70;93.20
83500;DHT22;73433;50.908;13.746;2023-11-21T01:27:28;7.70;93.20
83500;DHT22;73433;50.908;13.746;2023-11-21T01:29:55;7.70;93.20
83500;DHT22;73433;50.908;13.746;2023-11-21T01:32:22;7.70;93.10
83500;DHT22;73433;50.908;13.746;2023-11-21T01:34:50;7.70;93.10
83500;DHT22;73433;50.908;13.746;2023-11-21T01:37:18;7.70;93.00
83500;DHT22;73433;50.908;13.746;2023-11-21T01:39:45;7.70;93.00
83500;DHT22;73433;50.908;13.746;2023-11-21T01:42:13;7.70;92.90
83500;DHT22;73433;50.908;13.746;2023-11-21T01:44:41;7.70;92.90
83500;DHT22;73433;50.908;13.746;2023-11-21T01:47:08;7.70;92.80
83500;DHT22;73433;50.908;13.746;2023-11-21T01:49:36;7.70;92.80
83500;DHT22;73433;50.908;13.746;2023-11-21T01:52:05;7.70;92.80
83500;DHT22;73433;50.908;13.746;2023-11-21T01:54:33;7.70;92.80
83500;DHT22;73433;50.908;13.746;2023-11-21T01:57:00;7.70;92.80
83500;DHT22;73433;50.908;13.746;2023-11-21T01:59:41;7.60;92.70
83500;DHT22;73433;50.908;13.746;2023-11-21T02:02:09;7.60;92.70
83500;DHT22;73433;50.908;13.746;2023-11-21T02:04:37;7.60;92.80
83500;DHT22;73433;50.908;13.746;2023-11-21T02:07:04;7.60;92.80
83500;DHT22;73433;50.908;13.746;2023-11-21T02:09:34;7.50;92.80
83500;DHT22;73433;50.908;13.746;2023-11-21T02:12:05;7.50;92.80
83500;DHT22;73433;50.908;13.746;2023-11-21T02:14:32;7.50;92.80
83500;DHT22;73433;50.908;13.746;2023-11-21T02:17:00;7.50;92.90
83500;DHT22;73433;50.908;13.746;2023-11-21T02:19:28;7.50;93.00
83500;DHT22;73433;50.908;13.746;2023-11-21T02:21:57;7.40;92.80
83500;DHT22;73433;50.908;13.746;2023-11-21T02:24:28;7.40;92.90
83500;DHT22;73433;50.908;13.746;2023-11-21T02:26:55;7.40;92.90
83500;DHT22;73433;50.908;13.746;2023-11-21T02:29:22;7.40;92.80
83500;DHT22;73433;50.908;13.746;2023-11-21T02:31:55;7.40;92.90
83500;DHT22;73433;50.908;13.746;2023-11-21T02:34:23;7.30;93.00
83500;DHT22;73433;50.908;13.746;2023-11-21T02:36:52;7.30;93.00
83500;DHT22;73433;50.908;13.746;2023-11-21T02:39:21;7.30;93.00
83500;DHT22;73433;50.908;13.746;2023-11-21T02:41:49;7.30;93.10
83500;DHT22;73433;50.908;13.746;2023-11-21T02:44:17;7.30;93.20
83500;DHT22;73433;50.908;13.746;2023-11-21T02:46:44;7.30;93.30
83500;DHT22;73433;50.908;13.746;2023-11-21T02:49:11;7.30;93.30
83500;DHT22;73433;50.908;13.746;2023-11-21T02:51:38;7.30;93.30
83500;DHT22;73433;50.908;13.746;2023-11-21T02:54:06;7.30;93.30
83500;DHT22;73433;50.908;13.746;2023-11-21T02:56:33;7.30;93.30
83500;DHT22;73433;50.908;13.746;2023-11-21T02:59:01;7.30;93.30
83500;DHT22;73433;50.908;13.746;2023-11-21T03:01:28;7.30;93.40
83500;DHT22;73433;50.908;13.746;2023-11-21T03:03:55;7.30;93.40
83500;DHT22;73433;50.908;13.746;2023-11-21T03:06:23;7.30;93.30
83500;DHT22;73433;50.908;13.746;2023-11-21T03:08:50;7.30;93.20
83500;DHT22;73433;50.908;13.746;2023-11-21T03:11:18;7.30;93.20
83500;DHT22;73433;50.908;13.746;2023-11-21T03:13:45;7.30;93.10
83500;DHT22;73433;50.908;13.746;2023-11-21T03:16:12;7.30;93.10
83500;DHT22;73433;50.908;13.746;2023-11-21T03:18:40;7.30;93.10
83500;DHT22;73433;50.908;13.746;2023-11-21T03:21:08;7.30;93.00
83500;DHT22;73433;50.908;13.746;2023-11-21T03:23:38;7.30;93.00
83500;DHT22;73433;50.908;13.746;2023-11-21T03:26:05;7.30;93.00
83500;DHT22;73433;50.908;13.746;2023-11-21T03:28:35;7.30;93.00
83500;DHT22;73433;50.908;13.746;2023-11-21T03:31:02;7.30;93.10
83500;DHT22;73433;50.908;13.746;2023-11-21T03:33:29;7.30;93.00
83500;DHT22;73433;50.908;13.746;2023-11-21T03:35:56;7.30;93.20
83500;DHT22;73433;50.908;13.746;2023-11-21T03:38:23;7.30;93.10
83500;DHT22;73433;50.908;13.746;2023-11-21T03:40:50;7.30;93.20
83500;DHT22;73433;50.908;13.746;2023-11-21T03:43:18;7.30;93.20
83500;DHT22;73433;50.908;13.746;2023-11-21T03:45:45;7.30;93.20
83500;DHT22;73433;50.908;13.746;2023-11-21T03:48:13;7.20;93.00
83500;DHT22;73433;50.908;13.746;2023-11-21T03:50:40;7.20;93.00
83500;DHT22;73433;50.908;13.746;2023-11-21T03:53:07;7.20;93.10
83500;DHT22;73433;50.908;13.746;2023-11-21T03:55:34;7.20;93.10
83500;DHT22;73433;50.908;13.746;2023-11-21T03:58:01;7.10;93.30
83500;DHT22;73433;50.908;13.746;2023-11-21T04:00:29;7.10;93.30
83500;DHT22;73433;50.908;13.746;2023-11-21T04:02:56;7.10;93.50
83500;DHT22;73433;50.908;13.746;2023-11-21T04:05:23;7.10;93.60
83500;DHT22;73433;50.908;13.746;2023-11-21T04:07:51;7.10;93.60
83500;DHT22;73433;50.908;13.746;2023-11-21T04:10:18;7.10;93.70
83500;DHT22;73433;50.908;13.746;2023-11-21T04:12:46;7.10;93.80
83500;DHT22;73433;50.908;13.746;2023-11-21T04:15:13;7.10;93.80
83500;DHT22;73433;50.908;13.746;2023-11-21T04:17:41;7.10;93.90
83500;DHT22;73433;50.908;13.746;2023-11-21T04:20:09;7.10;93.90
83500;DHT22;73433;50.908;13.746;2023-11-21T04:22:41;7.10;93.90
83500;DHT22;73433;50.908;13.746;2023-11-21T04:25:12;7.10;93.90
83500;DHT22;73433;50.908;13.746;2023-11-21T04:27:41;7.10;93.90
83500;DHT22;73433;50.908;13.746;2023-11-21T04:30:14;7.10;93.90
83500;DHT22;73433;50.908;13.746;2023-11-21T04:32:42;7.10;93.80
83500;DHT22;73433;50.908;13.746;2023-11-21T04:35:09;7.10;93.90
83500;DHT22;73433;50.908;13.746;2023-11-21T04:37:37;7.10;93.70
83500;DHT22;73433;50.908;13.746;2023-11-21T04:40:04;7.10;93.70
83500;DHT22;73433;50.908;13.746;2023-11-21T04:42:35;7.10;93.70
83500;DHT22;73433;50.908;13.746;2023-11-21T04:45:06;7.20;93.60
83500;DHT22;73433;50.908;13.746;2023-11-21T04:47:38;7.10;93.50
83500;DHT22;73433;50.908;13.746;2023-11-21T04:50:06;7.10;93.50
83500;DHT22;73433;50.908;13.746;2023-11-21T04:52:33;7.10;93.30
83500;DHT22;73433;50.908;13.746;2023-11-21T04:55:01;7.10;93.30
83500;DHT22;73433;50.908;13.746;2023-11-21T04:57:29;7.10;93.20
83500;DHT22;73433;50.908;13.746;2023-11-21T04:59:57;7.10;93.00
83500;DHT22;73433;50.908;13.746;2023-11-21T05:02:24;7.10;93.00
83500;DHT22;73433;50.908;13.746;2023-11-21T05:05:02;7.10;92.90
83500;DHT22;73433;50.908;13.746;2023-11-21T05:07:33;7.10;92.90
83500;DHT22;73433;50.908;13.746;2023-11-21T05:10:04;7.10;92.90
83500;DHT22;73433;50.908;13.746;2023-11-21T05:12:35;7.00;92.80
83500;DHT22;73433;50.908;13.746;2023-11-21T05:15:05;7.00;92.80
83500;DHT22;73433;50.908;13.746;2023-11-21T05:17:40;7.00;92.90
83500;DHT22;73433;50.908;13.746;2023-11-21T05:20:12;7.00;93.10
83500;DHT22;73433;50.908;13.746;2023-11-21T05:22:41;7.00;93.20
83500;DHT22;73433;50.908;13.746;2023-11-21T05:25:09;7.00;93.20
83500;DHT22;73433;50.908;13.746;2023-11-21T05:27:38;7.00;93.20
83500;DHT22;73433;50.908;13.746;2023-11-21T05:30:06;7.10;93.30
83500;DHT22;73433;50.908;13.746;2023-11-21T05:32:33;7.10;93.50
83500;DHT22;73433;50.908;13.746;2023-11-21T05:35:01;7.10;93.40
83500;DHT22;73433;50.908;13.746;2023-11-21T05:37:28;7.10;93.40
83500;DHT22;73433;50.908;13.746;2023-11-21T05:39:56;7.10;93.50
83500;DHT22;73433;50.908;13.746;2023-11-21T05:42:24;7.10;93.50
83500;DHT22;73433;50.908;13.746;2023-11-21T05:44:51;7.10;93.40
83500;DHT22;73433;50.908;13.746;2023-11-21T05:47:18;7.10;93.30
83500;DHT22;73433;50.908;13.746;2023-11-21T05:49:45;7.20;93.10
83500;DHT22;73433;50.908;13.746;2023-11-21T05:52:17;7.20;93.00
83500;DHT22;73433;50.908;13.746;2023-11-21T05:54:45;7.20;92.90
83500;DHT22;73433;50.908;13.746;2023-11-21T05:57:12;7.10;92.70
83500;DHT22;73433;50.908;13.746;2023-11-21T05:59:40;7.10;92.70
83500;DHT22;73433;50.908;13.746;2023-11-21T06:02:07;7.10;92.80
83500;DHT22;73433;50.908;13.746;2023-11-21T06:04:34;7.10;92.80
83500;DHT22;73433;50.908;13.746;2023-11-21T06:07:02;7.10;92.80
83500;DHT22;73433;50.908;13.746;2023-11-21T06:09:29;7.10;92.80
83500;DHT22;73433;50.908;13.746;2023-11-21T06:11:57;7.10;92.80
83500;DHT22;73433;50.908;13.746;2023-11-21T06:14:24;7.10;92.90
83500;DHT22;73433;50.908;13.746;2023-11-21T06:16:51;7.10;92.90
83500;DHT22;73433;50.908;13.746;2023-11-21T06:19:19;7.10;93.00
83500;DHT22;73433;50.908;13.746;2023-11-21T06:21:46;7.10;92.90
83500;DHT22;73433;50.908;13.746;2023-11-21T06:24:14;7.10;93.00
83500;DHT22;73433;50.908;13.746;2023-11-21T06:26:42;7.10;92.90
83500;DHT22;73433;50.908;13.746;2023-11-21T06:29:11;7.10;92.80
83500;DHT22;73433;50.908;13.746;2023-11-21T06:31:38;7.10;92.70
83500;DHT22;73433;50.908;13.746;2023-11-21T06:34:07;7.10;92.70
83500;DHT22;73433;50.908;13.746;2023-11-21T06:36:36;7.10;92.70
83500;DHT22;73433;50.908;13.746;2023-11-21T06:39:03;7.10;92.70
83500;DHT22;73433;50.908;13.746;2023-11-21T06:41:35;7.00;92.50
83500;DHT22;73433;50.908;13.746;2023-11-21T06:44:06;7.00;92.50
83500;DHT22;73433;50.908;13.746;2023-11-21T06:46:33;7.00;92.60
83500;DHT22;73433;50.908;13.746;2023-11-21T06:49:00;7.00;92.70
83500;DHT22;73433;50.908;13.746;2023-11-21T06:51:28;7.00;92.80
83500;DHT22;73433;50.908;13.746;2023-11-21T06:53:55;7.00;92.90
83500;DHT22;73433;50.908;13.746;2023-11-21T06:56:22;7.00;93.00
83500;DHT22;73433;50.908;13.746;2023-11-21T06:58:49;7.00;93.10
83500;DHT22;73433;50.908;13.746;2023-11-21T07:01:21;7.00;93.20
83500;DHT22;73433;50.908;13.746;2023-11-21T07:03:48;7.00;93.30
83500;DHT22;73433;50.908;13.746;2023-11-21T07:06:15;7.00;93.30
83500;DHT22;73433;50.908;13.746;2023-11-21T07:08:45;7.00;93.70
83500;DHT22;73433;50.908;13.746;2023-11-21T07:11:12;7.00;93.20
83500;DHT22;73433;50.908;13.746;2023-11-21T07:13:39;7.10;93.30
83500;DHT22;73433;50.908;13.746;2023-11-21T07:16:07;7.10;93.30
83500;DHT22;73433;50.908;13.746;2023-11-21T07:18:34;7.10;93.20
83500;DHT22;73433;50.908;13.746;2023-11-21T07:21:01;7.10;93.10
83500;DHT22;73433;50.908;13.746;2023-11-21T07:23:29;7.10;93.20
83500;DHT22;73433;50.908;13.746;2023-11-21T07:25:56;7.20;93.20
83500;DHT22;73433;50.908;13.746;2023-11-21T07:28:24;7.20;93.20
83500;DHT22;73433;50.908;13.746;2023-11-21T07:30:52;7.20;93.10
83500;DHT22;73433;50.908;13.746;2023-11-21T07:33:20;7.20;92.90
83500;DHT22;73433;50.908;13.746;2023-11-21T07:35:48;7.20;92.90
83500;DHT22;73433;50.908;13.746;2023-11-21T07:38:15;7.20;93.00
83500;DHT22;73433;50.908;13.746;2023-11-21T07:40:43;7.20;92.90
83500;DHT22;73433;50.908;13.746;2023-11-21T07:43:10;7.20;93.00
83500;DHT22;73433;50.908;13.746;2023-11-21T07:45:37;7.20;93.00
83500;DHT22;73433;50.908;13.746;2023-11-21T07:48:05;7.30;93.10
83500;DHT22;73433;50.908;13.746;2023-11-21T07:50:33;7.30;93.10
83500;DHT22;73433;50.908;13.746;2023-11-21T07:53:01;7.20;93.00
83500;DHT22;73433;50.908;13.746;2023-11-21T07:55:28;7.30;93.20
83500;DHT22;73433;50.908;13.746;2023-11-21T07:57:59;7.30;93.30
83500;DHT22;73433;50.908;13.746;2023-11-21T08:00:26;7.20;93.20
83500;DHT22;73433;50.908;13.746;2023-11-21T08:02:57;7.30;93.30
83500;DHT22;73433;50.908;13.746;2023-11-21T08:05:24;7.30;93.30
83500;DHT22;73433;50.908;13.746;2023-11-21T08:08:03;7.30;93.50
83500;DHT22;73433;50.908;13.746;2023-11-21T08:10:30;7.20;93.50
83500;DHT22;73433;50.908;13.746;2023-11-21T08:12:58;7.30;93.80
83500;DHT22;73433;50.908;13.746;2023-11-21T08:15:25;7.20;93.90
83500;DHT22;73433;50.908;13.746;2023-11-21T08:17:52;7.20;94.10
83500;DHT22;73433;50.908;13.746;2023-11-21T08:20:19;7.20;94.30
83500;DHT22;73433;50.908;13.746;2023-11-21T08:22:47;7.20;94.40
83500;DHT22;73433;50.908;13.746;2023-11-21T08:25:15;7.30;94.90
83500;DHT22;73433;50.908;13.746;2023-11-21T08:27:44;7.30;94.90
83500;DHT22;73433;50.908;13.746;2023-11-21T08:30:12;7.30;94.90
83500;DHT22;73433;50.908;13.746;2023-11-21T08:32:41;7.30;94.90
83500;DHT22;73433;50.908;13.746;2023-11-21T08:35:08;7.40;94.90
83500;DHT22;73433;50.908;13.746;2023-11-21T08:37:36;7.40;94.70
83500;DHT22;73433;50.908;13.746;2023-11-21T08:40:06;7.50;94.70
83500;DHT22;73433;50.908;13.746;2023-11-21T08:42:36;7.50;94.60
83500;DHT22;73433;50.908;13.746;2023-11-21T08:45:04;7.50;94.50
83500;DHT22;73433;50.908;13.746;2023-11-21T08:47:32;7.60;94.20
83500;DHT22;73433;50.908;13.746;2023-11-21T08:50:00;7.60;94.10
83500;DHT22;73433;50.908;13.746;2023-11-21T08:52:27;7.60;93.80
83500;DHT22;73433;50.908;13.746;2023-11-21T08:54:54;7.60;93.70
83500;DHT22;73433;50.908;13.746;2023-11-21T08:57:26;7.70;93.50
83500;DHT22;73433;50.908;13.746;2023-11-21T08:59:53;7.60;93.40
83500;DHT22;73433;50.908;13.746;2023-11-21T09:02:23;7.60;93.40
83500;DHT22;73433;50.908;13.746;2023-11-21T09:04:50;7.60;93.60
83500;DHT22;73433;50.908;13.746;2023-11-21T09:07:20;7.50;93.80
83500;DHT22;73433;50.908;13.746;2023-11-21T09:09:47;7.50;94.00
83500;DHT22;73433;50.908;13.746;2023-11-21T09:12:16;7.50;94.10
83500;DHT22;73433;50.908;13.746;2023-11-21T09:14:43;7.50;94.10
83500;DHT22;73433;50.908;13.746;2023-11-21T09:17:11;7.60;94.10
83500;DHT22;73433;50.908;13.746;2023-11-21T09:19:38;7.60;94.00
83500;DHT22;73433;50.908;13.746;2023-11-21T09:22:06;7.60;94.10
83500;DHT22;73433;50.908;13.746;2023-11-21T09:24:34;7.60;94.10
83500;DHT22;73433;50.908;13.746;2023-11-21T09:27:03;7.60;93.90
83500;DHT22;73433;50.908;13.746;2023-11-21T09:29:32;7.60;93.80
83500;DHT22;73433;50.908;13.746;2023-11-21T09:31:59;7.60;93.70
83500;DHT22;73433;50.908;13.746;2023-11-21T09:34:27;7.60;93.70
83500;DHT22;73433;50.908;13.746;2023-11-21T09:36:54;7.70;93.80
83500;DHT22;73433;50.908;13.746;2023-11-21T09:39:21;7.70;93.90
83500;DHT22;73433;50.908;13.746;2023-11-21T09:41:52;7.70;93.80
83500;DHT22;73433;50.908;13.746;2023-11-21T09:44:46;7.60;93.90
83500;DHT22;73433;50.908;13.746;2023-11-21T09:47:16;7.60;93.90
83500;DHT22;73433;50.908;13.746;2023-11-21T09:49:47;7.60;94.00
83500;DHT22;73433;50.908;13.746;2023-11-21T09:52:27;7.60;94.00
83500;DHT22;73433;50.908;13.746;2023-11-21T09:54:55;7.50;94.10
83500;DHT22;73433;50.908;13.746;2023-11-21T09:57:27;7.40;94.20
83500;DHT22;73433;50.908;13.746;2023-11-21T09:59:55;7.40;94.40
83500;DHT22;73433;50.908;13.746;2023-11-21T10:02:28;7.40;94.60
83500;DHT22;73433;50.908;13.746;2023-11-21T10:04:59;7.40;94.80
83500;DHT22;73433;50.908;13.746;2023-11-21T10:07:28;7.40;94.90
83500;DHT22;73433;50.908;13.746;2023-11-21T10:09:59;7.30;95.10
83500;DHT22;73433;50.908;13.746;2023-11-21T10:12:28;7.30;95.20
83500;DHT22;73433;50.908;13.746;2023-11-21T10:14:58;7.30;95.30
83500;DHT22;73433;50.908;13.746;2023-11-21T10:17:28;7.30;95.50
83500;DHT22;73433;50.908;13.746;2023-11-21T10:19:58;7.30;95.60
83500;DHT22;73433;50.908;13.746;2023-11-21T10:22:26;7.30;95.80
83500;DHT22;73433;50.908;13.746;2023-11-21T10:24:54;7.30;95.80
83500;DHT22;73433;50.908;13.746;2023-11-21T10:27:21;7.30;95.90
83500;DHT22;73433;50.908;13.746;2023-11-21T10:29:51;7.30;96.00
83500;DHT22;73433;50.908;13.746;2023-11-21T10:32:18;7.30;96.20
83500;DHT22;73433;50.908;13.746;2023-11-21T10:34:56;7.30;96.20
83500;DHT22;73433;50.908;13.746;2023-11-21T10:37:25;7.30;96.30
83500;DHT22;73433;50.908;13.746;2023-11-21T10:39:59;7.30;96.20
83500;DHT22;73433;50.908;13.746;2023-11-21T10:42:27;7.30;96.00
83500;DHT22;73433;50.908;13.746;2023-11-21T10:44:55;7.20;95.70
83500;DHT22;73433;50.908;13.746;2023-11-21T10:47:22;7.20;95.60
83500;DHT22;73433;50.908;13.746;2023-11-21T10:49:50;7.20;95.60
83500;DHT22;73433;50.908;13.746;2023-11-21T10:52:19;7.10;95.50
83500;DHT22;73433;50.908;13.746;2023-11-21T10:54:46;7.10;95.40
83500;DHT22;73433;50.908;13.746;2023-11-21T10:57:18;7.10;95.40
83500;DHT22;73433;50.908;13.746;2023-11-21T10:59:49;7.00;95.20
83500;DHT22;73433;50.908;13.746;2023-11-21T11:02:23;7.00;95.20
83500;DHT22;73433;50.908;13.746;2023-11-21T11:05:00;6.90;94.90
83500;DHT22;73433;50.908;13.746;2023-11-21T11:07:28;6.80;94.60
83500;DHT22;73433;50.908;13.746;2023-11-21T11:09:59;6.80;94.70
83500;DHT22;73433;50.908;13.746;2023-11-21T11:12:26;6.70;94.80
83500;DHT22;73433;50.908;13.746;2023-11-21T11:14:55;6.70;94.60
83500;DHT22;73433;50.908;13.746;2023-11-21T11:17:23;6.60;94.50
83500;DHT22;73433;50.908;13.746;2023-11-21T11:19:50;6.60;94.60
83500;DHT22;73433;50.908;13.746;2023-11-21T11:28:07;6.30;95.00
83500;DHT22;73433;50.908;13.746;2023-11-21T11:33:31;6.20;95.50
83500;DHT22;73433;50.908;13.746;2023-11-21T11:36:23;6.20;95.80
83500;DHT22;73433;50.908;13.746;2023-11-21T11:38:52;6.20;95.90
83500;DHT22;73433;50.908;13.746;2023-11-21T11:41:30;6.20;95.90
83500;DHT22;73433;50.908;13.746;2023-11-21T11:44:00;6.10;95.70
83500;DHT22;73433;50.908;13.746;2023-11-21T11:46:44;6.00;95.60
83500;DHT22;73433;50.908;13.746;2023-11-21T11:49:27;5.90;95.70
83500;DHT22;73433;50.908;13.746;2023-11-21T11:55:00;5.80;95.80
83500;DHT22;73433;50.908;13.746;2023-11-21T11:57:32;5.70;96.00
83500;DHT22;73433;50.908;13.746;2023-11-21T12:02:59;5.70;96.10
83500;DHT22;73433;50.908;13.746;2023-11-21T12:05:32;5.60;96.00
83500;DHT22;73433;50.908;13.746;2023-11-21T12:08:02;5.60;96.10
83500;DHT22;73433;50.908;13.746;2023-11-21T12:10:32;5.60;96.00
83500;DHT22;73433;50.908;13.746;2023-11-21T12:13:07;5.50;96.00
83500;DHT22;73433;50.908;13.746;2023-11-21T12:15:36;5.50;96.10
83500;DHT22;73433;50.908;13.746;2023-11-21T12:18:04;5.40;95.80
83500;DHT22;73433;50.908;13.746;2023-11-21T12:20:33;5.40;95.70
83500;DHT22;73433;50.908;13.746;2023-11-21T12:23:07;5.30;95.70
83500;DHT22;73433;50.908;13.746;2023-11-21T12:25:36;5.20;95.80
83500;DHT22;73433;50.908;13.746;2023-11-21T12:28:04;5.20;96.10
83500;DHT22;73433;50.908;13.746;2023-11-21T12:30:35;5.10;96.30
83500;DHT22;73433;50.908;13.746;2023-11-21T12:33:03;5.10;96.40
83500;DHT22;73433;50.908;13.746;2023-11-21T12:35:35;5.10;96.50
83500;DHT22;73433;50.908;13.746;2023-11-21T12:38:03;5.10;96.50
83500;DHT22;73433;50.908;13.746;2023-11-21T12:40:32;5.10;96.60
83500;DHT22;73433;50.908;13.746;2023-11-21T12:43:00;5.00;96.40
83500;DHT22;73433;50.908;13.746;2023-11-21T12:45:29;5.00;96.50
83500;DHT22;73433;50.908;13.746;2023-11-21T12:48:02;5.00;96.50
83500;DHT22;73433;50.908;13.746;2023-11-21T12:50:36;4.90;96.40
83500;DHT22;73433;50.908;13.746;2023-11-21T12:53:09;4.90;96.50
83500;DHT22;73433;50.908;13.746;2023-11-21T12:55:37;4.80;96.40
83500;DHT22;73433;50.908;13.746;2023-11-21T12:58:09;4.80;96.60
83500;DHT22;73433;50.908;13.746;2023-11-21T13:00:46;4.80;96.60
83500;DHT22;73433;50.908;13.746;2023-11-21T13:03:15;4.80;96.70
83500;DHT22;73433;50.908;13.746;2023-11-21T13:05:53;4.70;96.70
83500;DHT22;73433;50.908;13.746;2023-11-21T13:08:23;4.70;97.00
83500;DHT22;73433;50.908;13.746;2023-11-21T13:10:56;4.70;97.10
83500;DHT22;73433;50.908;13.746;2023-11-21T13:13:25;4.70;97.20
83500;DHT22;73433;50.908;13.746;2023-11-21T13:16:02;4.70;97.30
83500;DHT22;73433;50.908;13.746;2023-11-21T13:18:32;4.70;97.10
83500;DHT22;73433;50.908;13.746;2023-11-21T13:21:02;4.70;97.30
83500;DHT22;73433;50.908;13.746;2023-11-21T13:23:36;4.70;97.50
83500;DHT22;73433;50.908;13.746;2023-11-21T13:26:05;4.70;97.40
83500;DHT22;73433;50.908;13.746;2023-11-21T13:28:34;4.70;97.30
83500;DHT22;73433;50.908;13.746;2023-11-21T13:31:03;4.70;97.40
83500;DHT22;73433;50.908;13.746;2023-11-21T13:33:39;4.70;97.40
83500;DHT22;73433;50.908;13.746;2023-11-21T13:36:10;4.70;97.20
83500;DHT22;73433;50.908;13.746;2023-11-21T13:38:38;4.70;97.10
83500;DHT22;73433;50.908;13.746;2023-11-21T13:41:10;4.70;97.10
83500;DHT22;73433;50.908;13.746;2023-11-21T13:43:39;4.70;97.00
83500;DHT22;73433;50.908;13.746;2023-11-21T13:46:11;4.70;96.80
83500;DHT22;73433;50.908;13.746;2023-11-21T13:48:40;4.70;97.00
83500;DHT22;73433;50.908;13.746;2023-11-21T13:51:10;4.70;97.00
83500;DHT22;73433;50.908;13.746;2023-11-21T13:53:45;4.70;97.00
83500;DHT22;73433;50.908;13.746;2023-11-21T13:56:18;4.70;97.00
83500;DHT22;73433;50.908;13.746;2023-11-21T13:58:53;4.70;97.00
83500;DHT22;73433;50.908;13.746;2023-11-21T14:01:22;4.70;97.70
83500;DHT22;73433;50.908;13.746;2023-11-21T14:04:01;4.60;96.70
83500;DHT22;73433;50.908;13.746;2023-11-21T14:06:50;4.60;96.80
83500;DHT22;73433;50.908;13.746;2023-11-21T14:09:22;4.60;96.80
83500;DHT22;73433;50.908;13.746;2023-11-21T14:11:53;4.60;97.00
83500;DHT22;73433;50.908;13.746;2023-11-21T14:14:22;4.60;97.00
83500;DHT22;73433;50.908;13.746;2023-11-21T14:16:50;4.60;97.20
83500;DHT22;73433;50.908;13.746;2023-11-21T14:19:18;4.60;97.00
83500;DHT22;73433;50.908;13.746;2023-11-21T14:21:46;4.60;96.90
83500;DHT22;73433;50.908;13.746;2023-11-21T14:24:16;4.60;97.10
83500;DHT22;73433;50.908;13.746;2023-11-21T14:26:46;4.50;97.00
83500;DHT22;73433;50.908;13.746;2023-11-21T14:29:15;4.50;96.90
83500;DHT22;73433;50.908;13.746;2023-11-21T14:31:47;4.50;96.80
83500;DHT22;73433;50.908;13.746;2023-11-21T14:34:15;4.50;96.70
83500;DHT22;73433;50.908;13.746;2023-11-21T14:36:47;4.50;96.90
83500;DHT22;73433;50.908;13.746;2023-11-21T14:39:16;4.50;97.10
83500;DHT22;73433;50.908;13.746;2023-11-21T14:41:57;4.50;96.90
83500;DHT22;73433;50.908;13.746;2023-11-21T14:44:26;4.40;96.70
83500;DHT22;73433;50.908;13.746;2023-11-21T14:46:56;4.40;96.70
83500;DHT22;73433;50.908;13.746;2023-11-21T14:49:25;4.40;96.50
83500;DHT22;73433;50.908;13.746;2023-11-21T14:51:55;4.30;96.70
83500;DHT22;73433;50.908;13.746;2023-11-21T14:54:35;4.30;96.70
83500;DHT22;73433;50.908;13.746;2023-11-21T14:57:13;4.30;96.80
83500;DHT22;73433;50.908;13.746;2023-11-21T14:59:46;4.20;96.40
83500;DHT22;73433;50.908;13.746;2023-11-21T15:02:24;4.20;96.30
83500;DHT22;73433;50.908;13.746;2023-11-21T15:05:11;4.20;95.80
83500;DHT22;73433;50.908;13.746;2023-11-21T15:07:44;4.10;95.90
83500;DHT22;73433;50.908;13.746;2023-11-21T15:10:13;4.00;95.70
83500;DHT22;73433;50.908;13.746;2023-11-21T15:12:43;3.90;95.60
83500;DHT22;73433;50.908;13.746;2023-11-21T15:15:11;3.90;95.30
83500;DHT22;73433;50.908;13.746;2023-11-21T15:17:41;3.80;95.00
83500;DHT22;73433;50.908;13.746;2023-11-21T15:20:11;3.70;94.90
83500;DHT22;73433;50.908;13.746;2023-11-21T15:22:46;3.60;95.00
83500;DHT22;73433;50.908;13.746;2023-11-21T15:25:13;3.50;95.00
83500;DHT22;73433;50.908;13.746;2023-11-21T15:27:40;3.40;95.00
83500;DHT22;73433;50.908;13.746;2023-11-21T15:30:08;3.40;95.10
83500;DHT22;73433;50.908;13.746;2023-11-21T15:32:36;3.40;95.30
83500;DHT22;73433;50.908;13.746;2023-11-21T15:35:03;3.40;95.60
83500;DHT22;73433;50.908;13.746;2023-11-21T15:37:30;3.30;95.50
83500;DHT22;73433;50.908;13.746;2023-11-21T15:39:58;3.30;95.40
83500;DHT22;73433;50.908;13.746;2023-11-21T15:42:26;3.20;95.50
83500;DHT22;73433;50.908;13.746;2023-11-21T15:44:53;3.20;95.70
83500;DHT22;73433;50.908;13.746;2023-11-21T15:47:20;3.20;95.70
83500;DHT22;73433;50.908;13.746;2023-11-21T15:49:48;3.10;95.90
83500;DHT22;73433;50.908;13.746;2023-11-21T15:52:17;3.10;96.00
83500;DHT22;73433;50.908;13.746;2023-11-21T15:54:46;3.10;96.00
83500;DHT22;73433;50.908;13.746;2023-11-21T15:57:13;3.10;96.10